28 de setembro de 2022

Hora Código Clima Temp. Visibilidade Tecto Vento METAR/SPECI
19:00
V
25 °C 8 km 3.600 ft 200° 200° 4 kt METAR YBWP 280900Z AUTO 20004KT 8000 RA OVC036 25/24 Q1009
18:30
I
25 °C 2 km 3.600 ft 280° 280° 4 kt METAR YBWP 280830Z AUTO 28004KT 250V320 2000 +SHRA SCT019 BKN036 OVC045 25/24 Q1009
18:23
I
25 °C 4,1 km 4.500 ft 310° 310° 3 kt METAR YBWP 280823Z AUTO 31003KT 4100 SHRA SCT036 OVC045 25/24 Q1008
17:11
V
30 °C 10 km+ 7.100 ft 330° 330° 6 kt METAR YBWP 280711Z AUTO 33006KT 270V050 9999 VCTS BKN071 BKN082 30/23 Q1007 RETS
17:01
V
31 °C 10 km+ 8.200 ft 060° 060° 5 kt METAR YBWP 280701Z AUTO 06005KT 060V120 9999 TS SCT071 BKN082 31/22 Q1007
16:34
V
31 °C 10 km+ 5.800 ft 110° 110° 13 kt METAR YBWP 280634Z AUTO 11013KT 9999 TS SCT036 BKN058 BKN071 31/22 Q1006
Dados mais antigos

Nós e terceiros acompanhamos seu comportamento na internet em nosso site com cookies. Se você continuar, nós assumimos que você concorda com nossa política de cookies. Saiba mais